METAR AND TAF INFORMATION
METAR FOR FMEE
ADDS - METARS form results

(0152 UTC 21 January 2020)
Data provider http://aviationweather.gov/metar/data/
 
METAR text: FMEE 210130Z AUTO 30014KT 4000 +RA BR BKN007/// BKN054/// BKN074/// ///CB 24/24 Q1004
Conditions at: FMEE (ST. DENIS/GILLOT, FR) observed 0130 UTC 21 January 2020
Temperature: 24.0°C (75°F)
Dewpoint: 24.0°C (75°F) [RH = 100%]
Pressure (altimeter): 29.65 inches Hg (1004.0 mb)
Winds: from the WNW (300 degrees) at 16 MPH (14 knots; 7.2 m/s)
Visibility: 2.49 miles (4.01 km)
Ceiling: 700 feet AGL
Clouds: broken clouds at 700 feet AGL
broken clouds at 5400 feet AGL
broken clouds at 7400 feet AGL
Weather: +RA BR  (heavy rain, mist)

METAR text: FMEE 210100Z AUTO 24004KT 210V280 8000 -RA VCTS FEW086/// OVC100/// ///CB 24/23 Q1003
Conditions at: FMEE (ST. DENIS/GILLOT, FR) observed 0100 UTC 21 January 2020
Temperature: 24.0°C (75°F)
Dewpoint: 23.0°C (73°F) [RH = 94%]
Pressure (altimeter): 29.62 inches Hg (1003.0 mb)
Winds: from the WSW (240 degrees) at 5 MPH (4 knots; 2.1 m/s)
Visibility: 5 miles ( 8 km)
Ceiling: 10000 feet AGL
Clouds: few clouds at 8600 feet AGL
overcast cloud deck at 10000 feet AGL
Weather: -RA VCTS  (light rain, thunderstorm in vicinity)

 AIRPORT MAP

 RUNWAY INFORMATION

 AIRPORT FREQUENCIES
Type A/G Name GILLOT RDO Frequency 347.6 MHZ
Type APP Name GILLOT APP Frequency 119.4 MHZ
Type ATIS Name ATIS Frequency 126.8 MHZ
Type GND Name GILLOT GND Frequency 121.9 MHZ
Type TWR Name GILLOT TWR Frequency 118.4 MHZ

 AIRPORT NEAR NAVIGATION AIDS
Type NDB Name St Denis Gillot Frequency 382 KHZ
Type VOR-DME Name St Denis Gillot Frequency 112900 KHZ



Powered by Virtual Airlines Manager [v2.6.2]